sensor_id;sensor_type;location;lat;lon;timestamp;P1;durP1;ratioP1;P2;durP2;ratioP2
1122;SDS011;548;48.778;9.252;2023-03-12T10:11:26;22.70;;;21.10;;
1122;SDS011;548;48.778;9.252;2023-03-12T10:14:05;21.90;;;20.40;;
1122;SDS011;548;48.778;9.252;2023-03-12T10:16:48;24.30;;;22.77;;
1122;SDS011;548;48.778;9.252;2023-03-12T10:19:31;21.03;;;19.70;;
1122;SDS011;548;48.778;9.252;2023-03-12T10:22:11;22.40;;;20.93;;
1122;SDS011;548;48.778;9.252;2023-03-12T10:24:51;22.90;;;21.50;;
1122;SDS011;548;48.778;9.252;2023-03-12T10:27:27;19.60;;;18.30;;
1122;SDS011;548;48.778;9.252;2023-03-12T10:29:55;20.03;;;18.53;;
1122;SDS011;548;48.778;9.252;2023-03-12T10:32:24;19.77;;;18.37;;
1122;SDS011;548;48.778;9.252;2023-03-12T10:34:58;21.07;;;19.27;;
1122;SDS011;548;48.778;9.252;2023-03-12T10:37:28;20.87;;;19.57;;
1122;SDS011;548;48.778;9.252;2023-03-12T10:40:01;19.53;;;18.23;;
1122;SDS011;548;48.778;9.252;2023-03-12T10:42:31;18.50;;;17.30;;
1122;SDS011;548;48.778;9.252;2023-03-12T10:44:58;20.33;;;18.57;;
1122;SDS011;548;48.778;9.252;2023-03-12T10:47:38;19.17;;;17.97;;
1122;SDS011;548;48.778;9.252;2023-03-12T10:50:14;19.33;;;18.03;;
1122;SDS011;548;48.778;9.252;2023-03-12T10:52:42;19.27;;;17.77;;
1122;SDS011;548;48.778;9.252;2023-03-12T10:55:11;18.63;;;17.33;;
1122;SDS011;548;48.778;9.252;2023-03-12T10:57:46;19.30;;;18.10;;
1122;SDS011;548;48.778;9.252;2023-03-12T11:00:18;19.30;;;18.20;;
1122;SDS011;548;48.778;9.252;2023-03-12T11:02:46;19.17;;;17.93;;
1122;SDS011;548;48.778;9.252;2023-03-12T11:05:23;20.03;;;18.57;;
1122;SDS011;548;48.778;9.252;2023-03-12T11:07:51;20.87;;;19.60;;
1122;SDS011;548;48.778;9.252;2023-03-12T11:10:20;21.07;;;19.47;;
1122;SDS011;548;48.778;9.252;2023-03-12T11:12:57;17.60;;;16.60;;
1122;SDS011;548;48.778;9.252;2023-03-12T11:15:29;18.43;;;17.43;;
1122;SDS011;548;48.778;9.252;2023-03-12T11:20:56;16.53;;;15.27;;
1122;SDS011;548;48.778;9.252;2023-03-12T11:23:38;14.17;;;13.37;;
1122;SDS011;548;48.778;9.252;2023-03-12T11:26:10;13.40;;;12.70;;
1122;SDS011;548;48.778;9.252;2023-03-12T11:28:41;10.80;;;10.20;;
1122;SDS011;548;48.778;9.252;2023-03-12T11:31:14;11.27;;;10.77;;
1122;SDS011;548;48.778;9.252;2023-03-12T11:33:47;11.70;;;11.10;;
1122;SDS011;548;48.778;9.252;2023-03-12T11:36:19;11.60;;;11.10;;
1122;SDS011;548;48.778;9.252;2023-03-12T11:38:56;12.00;;;11.40;;
1122;SDS011;548;48.778;9.252;2023-03-12T11:41:32;11.00;;;10.60;;
1122;SDS011;548;48.778;9.252;2023-03-12T11:44:20;10.83;;;10.43;;
1122;SDS011;548;48.778;9.252;2023-03-12T11:46:54;10.43;;;10.03;;
1122;SDS011;548;48.778;9.252;2023-03-12T11:49:37;11.07;;;10.60;;
1122;SDS011;548;48.778;9.252;2023-03-12T11:52:23;11.50;;;11.00;;
1122;SDS011;548;48.778;9.252;2023-03-12T11:55:01;9.70;;;9.40;;
1122;SDS011;548;48.778;9.252;2023-03-12T11:57:41;10.90;;;10.40;;
1122;SDS011;548;48.778;9.252;2023-03-12T12:00:23;10.53;;;10.17;;
1122;SDS011;548;48.778;9.252;2023-03-12T12:02:59;9.60;;;9.20;;
1122;SDS011;548;48.778;9.252;2023-03-12T12:05:52;9.20;;;8.90;;
1122;SDS011;548;48.778;9.252;2023-03-12T12:08:29;10.13;;;9.83;;
1122;SDS011;548;48.778;9.252;2023-03-12T12:11:07;10.20;;;9.90;;
1122;SDS011;548;48.778;9.252;2023-03-12T12:13:41;9.60;;;9.30;;
1122;SDS011;548;48.778;9.252;2023-03-12T12:19:10;9.13;;;8.80;;
1122;SDS011;548;48.778;9.252;2023-03-12T12:21:49;9.87;;;9.57;;
1122;SDS011;548;48.778;9.252;2023-03-12T12:24:30;10.77;;;10.27;;
1122;SDS011;548;48.778;9.252;2023-03-12T12:27:10;10.27;;;9.87;;
1122;SDS011;548;48.778;9.252;2023-03-12T12:29:54;10.73;;;10.23;;
1122;SDS011;548;48.778;9.252;2023-03-12T12:32:33;10.33;;;9.93;;
1122;SDS011;548;48.778;9.252;2023-03-12T12:35:14;10.40;;;10.00;;
1122;SDS011;548;48.778;9.252;2023-03-12T12:37:49;10.23;;;9.87;;
1122;SDS011;548;48.778;9.252;2023-03-12T12:40:24;10.40;;;9.80;;
1122;SDS011;548;48.778;9.252;2023-03-12T12:42:57;11.00;;;10.60;;
1122;SDS011;548;48.778;9.252;2023-03-12T12:45:29;12.77;;;11.97;;
1122;SDS011;548;48.778;9.252;2023-03-12T12:47:57;11.50;;;11.00;;
1122;SDS011;548;48.778;9.252;2023-03-12T12:50:28;9.10;;;8.70;;
1122;SDS011;548;48.778;9.252;2023-03-12T12:53:01;10.63;;;10.13;;
1122;SDS011;548;48.778;9.252;2023-03-12T12:55:34;11.20;;;10.70;;
1122;SDS011;548;48.778;9.252;2023-03-12T12:58:06;10.30;;;9.70;;
1122;SDS011;548;48.778;9.252;2023-03-12T13:00:44;9.13;;;8.63;;
1122;SDS011;548;48.778;9.252;2023-03-12T13:03:15;9.70;;;9.40;;
1122;SDS011;548;48.778;9.252;2023-03-12T13:05:44;9.20;;;8.90;;
1122;SDS011;548;48.778;9.252;2023-03-12T13:08:34;11.93;;;11.30;;
1122;SDS011;548;48.778;9.252;2023-03-12T13:11:24;11.00;;;10.20;;
1122;SDS011;548;48.778;9.252;2023-03-12T13:14:13;9.87;;;9.43;;
1122;SDS011;548;48.778;9.252;2023-03-12T13:16:45;10.20;;;9.50;;
1122;SDS011;548;48.778;9.252;2023-03-12T13:19:24;10.00;;;9.30;;
1122;SDS011;548;48.778;9.252;2023-03-12T13:21:56;9.70;;;9.30;;
1122;SDS011;548;48.778;9.252;2023-03-12T13:24:34;9.57;;;9.17;;
1122;SDS011;548;48.778;9.252;2023-03-12T13:27:10;12.73;;;12.20;;
1122;SDS011;548;48.778;9.252;2023-03-12T13:29:42;12.63;;;12.03;;
1122;SDS011;548;48.778;9.252;2023-03-12T13:35:18;10.83;;;10.23;;
1122;SDS011;548;48.778;9.252;2023-03-12T13:37:59;9.60;;;9.10;;
1122;SDS011;548;48.778;9.252;2023-03-12T13:49:05;10.00;;;9.40;;
1122;SDS011;548;48.778;9.252;2023-03-12T13:54:28;8.90;;;8.47;;
1122;SDS011;548;48.778;9.252;2023-03-12T13:57:00;9.37;;;8.97;;
1122;SDS011;548;48.778;9.252;2023-03-12T13:59:30;10.87;;;10.20;;
1122;SDS011;548;48.778;9.252;2023-03-12T14:02:02;10.43;;;9.83;;
1122;SDS011;548;48.778;9.252;2023-03-12T14:04:34;10.43;;;9.73;;
1122;SDS011;548;48.778;9.252;2023-03-12T14:07:11;11.03;;;10.53;;
1122;SDS011;548;48.778;9.252;2023-03-12T14:09:55;9.20;;;8.90;;
1122;SDS011;548;48.778;9.252;2023-03-12T14:12:30;10.67;;;9.77;;
1122;SDS011;548;48.778;9.252;2023-03-12T14:15:09;10.87;;;9.87;;
1122;SDS011;548;48.778;9.252;2023-03-12T14:17:42;11.17;;;10.57;;
1122;SDS011;548;48.778;9.252;2023-03-12T14:20:10;11.30;;;10.50;;
1122;SDS011;548;48.778;9.252;2023-03-12T14:22:43;10.03;;;9.53;;
1122;SDS011;548;48.778;9.252;2023-03-12T14:25:15;10.37;;;9.77;;
1122;SDS011;548;48.778;9.252;2023-03-12T14:27:47;10.47;;;10.07;;
1122;SDS011;548;48.778;9.252;2023-03-12T14:30:15;11.00;;;10.27;;
1122;SDS011;548;48.778;9.252;2023-03-12T14:32:47;9.70;;;9.20;;
1122;SDS011;548;48.778;9.252;2023-03-12T14:35:18;10.47;;;9.97;;
1122;SDS011;548;48.778;9.252;2023-03-12T14:37:50;9.77;;;9.27;;
1122;SDS011;548;48.778;9.252;2023-03-12T14:40:22;10.20;;;9.67;;
1122;SDS011;548;48.778;9.252;2023-03-12T14:42:54;10.30;;;9.90;;
1122;SDS011;548;48.778;9.252;2023-03-12T14:45:24;10.93;;;10.33;;
1122;SDS011;548;48.778;9.252;2023-03-12T14:47:52;10.97;;;10.47;;
1122;SDS011;548;48.778;9.252;2023-03-12T14:50:20;10.23;;;9.63;;
1122;SDS011;548;48.778;9.252;2023-03-12T14:52:50;10.83;;;10.20;;
1122;SDS011;548;48.778;9.252;2023-03-12T14:55:18;10.90;;;10.33;;
1122;SDS011;548;48.778;9.252;2023-03-12T14:57:46;9.80;;;9.20;;
1122;SDS011;548;48.778;9.252;2023-03-12T15:00:20;10.07;;;9.43;;
1122;SDS011;548;48.778;9.252;2023-03-12T15:02:49;9.90;;;9.40;;
1122;SDS011;548;48.778;9.252;2023-03-12T15:05:18;10.37;;;9.87;;
1122;SDS011;548;48.778;9.252;2023-03-12T15:07:46;10.40;;;9.80;;
1122;SDS011;548;48.778;9.252;2023-03-12T15:10:17;10.70;;;10.20;;
1122;SDS011;548;48.778;9.252;2023-03-12T15:12:48;10.30;;;9.80;;
1122;SDS011;548;48.778;9.252;2023-03-12T15:15:22;10.97;;;10.47;;
1122;SDS011;548;48.778;9.252;2023-03-12T15:17:54;10.83;;;10.23;;
1122;SDS011;548;48.778;9.252;2023-03-12T15:20:22;9.40;;;9.00;;
1122;SDS011;548;48.778;9.252;2023-03-12T15:22:50;10.17;;;9.47;;
1122;SDS011;548;48.778;9.252;2023-03-12T15:25:23;10.20;;;9.77;;
1122;SDS011;548;48.778;9.252;2023-03-12T15:28:02;11.83;;;11.30;;
1122;SDS011;548;48.778;9.252;2023-03-12T15:30:31;11.27;;;10.67;;
1122;SDS011;548;48.778;9.252;2023-03-12T15:33:06;10.53;;;9.93;;
1122;SDS011;548;48.778;9.252;2023-03-12T15:35:35;9.57;;;9.07;;
1122;SDS011;548;48.778;9.252;2023-03-12T15:38:03;10.50;;;9.80;;
1122;SDS011;548;48.778;9.252;2023-03-12T15:40:31;10.00;;;9.40;;
1122;SDS011;548;48.778;9.252;2023-03-12T15:42:58;10.23;;;9.80;;
1122;SDS011;548;48.778;9.252;2023-03-12T15:45:30;10.20;;;9.70;;
1122;SDS011;548;48.778;9.252;2023-03-12T15:48:01;10.70;;;10.20;;
1122;SDS011;548;48.778;9.252;2023-03-12T15:50:30;12.10;;;11.30;;
1122;SDS011;548;48.778;9.252;2023-03-12T15:53:03;10.00;;;9.50;;
1122;SDS011;548;48.778;9.252;2023-03-12T15:55:33;10.67;;;10.07;;
1122;SDS011;548;48.778;9.252;2023-03-12T15:58:01;10.47;;;9.97;;
1122;SDS011;548;48.778;9.252;2023-03-12T16:00:29;10.60;;;10.10;;
1122;SDS011;548;48.778;9.252;2023-03-12T16:03:14;9.73;;;9.27;;
1122;SDS011;548;48.778;9.252;2023-03-12T16:05:42;10.07;;;9.50;;
1122;SDS011;548;48.778;9.252;2023-03-12T16:08:11;9.60;;;9.07;;
1122;SDS011;548;48.778;9.252;2023-03-12T16:10:41;10.30;;;9.50;;
1122;SDS011;548;48.778;9.252;2023-03-12T16:13:09;10.43;;;9.47;;
1122;SDS011;548;48.778;9.252;2023-03-12T16:15:39;11.33;;;10.63;;
1122;SDS011;548;48.778;9.252;2023-03-12T16:18:10;11.57;;;10.63;;
1122;SDS011;548;48.778;9.252;2023-03-12T16:20:38;11.67;;;10.70;;
1122;SDS011;548;48.778;9.252;2023-03-12T16:23:05;9.40;;;8.80;;
1122;SDS011;548;48.778;9.252;2023-03-12T16:25:32;10.40;;;9.33;;
1122;SDS011;548;48.778;9.252;2023-03-12T16:28:01;11.33;;;10.60;;
1122;SDS011;548;48.778;9.252;2023-03-12T16:30:31;12.50;;;11.43;;
1122;SDS011;548;48.778;9.252;2023-03-12T16:33:00;11.10;;;10.40;;
1122;SDS011;548;48.778;9.252;2023-03-12T16:35:28;11.43;;;10.60;;
1122;SDS011;548;48.778;9.252;2023-03-12T16:37:55;10.83;;;9.77;;
1122;SDS011;548;48.778;9.252;2023-03-12T16:40:25;11.30;;;10.57;;
1122;SDS011;548;48.778;9.252;2023-03-12T16:42:53;10.70;;;10.00;;
1122;SDS011;548;48.778;9.252;2023-03-12T16:45:21;10.63;;;10.10;;
1122;SDS011;548;48.778;9.252;2023-03-12T16:47:52;11.80;;;10.80;;
1122;SDS011;548;48.778;9.252;2023-03-12T16:50:23;12.67;;;11.70;;
1122;SDS011;548;48.778;9.252;2023-03-12T16:52:50;10.83;;;10.03;;
1122;SDS011;548;48.778;9.252;2023-03-12T16:55:17;11.30;;;10.30;;
1122;SDS011;548;48.778;9.252;2023-03-12T16:57:45;11.30;;;10.40;;
1122;SDS011;548;48.778;9.252;2023-03-12T17:00:18;10.40;;;9.80;;
1122;SDS011;548;48.778;9.252;2023-03-12T17:02:52;10.10;;;9.60;;
1122;SDS011;548;48.778;9.252;2023-03-12T17:05:21;10.60;;;9.83;;
1122;SDS011;548;48.778;9.252;2023-03-12T17:07:49;9.87;;;9.37;;
1122;SDS011;548;48.778;9.252;2023-03-12T17:10:18;10.57;;;9.87;;
1122;SDS011;548;48.778;9.252;2023-03-12T17:12:45;11.97;;;11.10;;
1122;SDS011;548;48.778;9.252;2023-03-12T17:15:14;11.27;;;10.40;;
1122;SDS011;548;48.778;9.252;2023-03-12T17:17:44;10.60;;;9.80;;
1122;SDS011;548;48.778;9.252;2023-03-12T17:20:16;12.37;;;10.03;;
1122;SDS011;548;48.778;9.252;2023-03-12T17:22:45;10.13;;;9.40;;
1122;SDS011;548;48.778;9.252;2023-03-12T17:25:16;11.07;;;10.23;;
1122;SDS011;548;48.778;9.252;2023-03-12T17:27:46;11.47;;;10.50;;
1122;SDS011;548;48.778;9.252;2023-03-12T17:30:13;11.17;;;10.33;;
1122;SDS011;548;48.778;9.252;2023-03-12T17:32:40;10.10;;;9.57;;
1122;SDS011;548;48.778;9.252;2023-03-12T17:35:07;11.10;;;10.40;;
1122;SDS011;548;48.778;9.252;2023-03-12T17:37:38;12.10;;;11.20;;
1122;SDS011;548;48.778;9.252;2023-03-12T17:40:07;11.20;;;10.33;;
1122;SDS011;548;48.778;9.252;2023-03-12T17:42:35;11.17;;;10.23;;
1122;SDS011;548;48.778;9.252;2023-03-12T17:45:11;11.80;;;10.80;;
1122;SDS011;548;48.778;9.252;2023-03-12T17:47:39;12.80;;;12.10;;
1122;SDS011;548;48.778;9.252;2023-03-12T17:50:08;11.17;;;10.23;;
1122;SDS011;548;48.778;9.252;2023-03-12T17:52:39;11.70;;;10.83;;
1122;SDS011;548;48.778;9.252;2023-03-12T17:55:06;11.77;;;10.87;;
1122;SDS011;548;48.778;9.252;2023-03-12T17:57:33;12.23;;;11.27;;
